createdAt,value
2022-08-28T00:00:41.714Z,62.65
2022-08-28T00:03:13.298Z,62.72
2022-08-28T00:05:42.783Z,62.83
2022-08-28T00:08:13.985Z,62.90
2022-08-28T00:10:43.673Z,62.66
2022-08-28T00:13:18.518Z,63.21
2022-08-28T00:15:49.293Z,63.41
2022-08-28T00:18:19.395Z,63.50
2022-08-28T00:20:48.964Z,63.62
2022-08-28T00:23:18.141Z,63.54
2022-08-28T00:25:46.480Z,63.84
2022-08-28T00:28:23.589Z,63.83
2022-08-28T00:30:55.669Z,63.77
2022-08-28T00:33:29.382Z,63.88
2022-08-28T00:35:58.997Z,63.76
2022-08-28T00:38:29.450Z,63.87
2022-08-28T00:41:03.970Z,64.00
2022-08-28T00:43:42.454Z,63.83
2022-08-28T00:46:14.310Z,64.07
2022-08-28T00:48:44.210Z,64.08
2022-08-28T00:51:45.765Z,64.18
2022-08-28T00:54:14.287Z,64.09
2022-08-28T00:56:44.728Z,63.89
2022-08-28T00:59:18.205Z,64.07
2022-08-28T01:01:48.543Z,64.33
2022-08-28T01:04:21.664Z,64.33
2022-08-28T01:06:53.512Z,64.18
2022-08-28T01:09:24.450Z,64.17
2022-08-28T01:11:57.514Z,64.41
2022-08-28T01:14:26.954Z,64.15
2022-08-28T01:16:56.152Z,64.40
2022-08-28T01:19:33.410Z,64.36
2022-08-28T01:22:16.612Z,64.35
2022-08-28T01:24:48.674Z,64.91
2022-08-28T01:27:17.297Z,65.03
2022-08-28T01:29:45.681Z,64.79
2022-08-28T01:32:30.423Z,65.11
2022-08-28T01:34:58.902Z,65.09
2022-08-28T01:37:27.182Z,65.00
2022-08-28T01:39:56.984Z,64.89
2022-08-28T01:42:26.078Z,64.91
2022-08-28T01:44:54.903Z,64.77
2022-08-28T01:47:23.882Z,65.06
2022-08-28T01:49:52.151Z,65.17
2022-08-28T01:52:25.460Z,65.25
2022-08-28T01:54:56.379Z,65.29
2022-08-28T01:57:27.369Z,65.39
2022-08-28T01:59:55.989Z,65.26
2022-08-28T02:02:24.592Z,65.52
2022-08-28T02:04:53.873Z,65.28
2022-08-28T02:07:22.137Z,65.70
2022-08-28T02:09:50.438Z,65.60
2022-08-28T02:12:20.633Z,65.66
2022-08-28T02:14:48.940Z,65.88
2022-08-28T02:17:17.178Z,65.86
2022-08-28T02:19:45.405Z,66.07
2022-08-28T02:22:13.707Z,66.02
2022-08-28T02:24:42.040Z,66.15
2022-08-28T02:27:10.623Z,66.06
2022-08-28T02:29:40.780Z,66.57
2022-08-28T02:32:09.211Z,66.52
2022-08-28T02:34:39.166Z,66.67
2022-08-28T02:37:08.729Z,66.74
2022-08-28T02:39:37.111Z,66.64
2022-08-28T02:42:05.707Z,66.78
2022-08-28T02:44:35.388Z,66.96
2022-08-28T02:47:06.046Z,66.78
2022-08-28T02:49:36.127Z,66.83
2022-08-28T02:52:06.858Z,67.08
2022-08-28T02:54:37.239Z,67.23
2022-08-28T02:57:06.698Z,67.12
2022-08-28T02:59:35.076Z,66.89
2022-08-28T03:02:07.100Z,67.16
2022-08-28T03:04:36.560Z,67.12
2022-08-28T03:07:07.381Z,67.03
2022-08-28T03:09:35.807Z,67.08
2022-08-28T03:12:05.142Z,67.15
2022-08-28T03:14:33.430Z,67.17
2022-08-28T03:17:01.783Z,67.19
2022-08-28T03:19:31.440Z,67.26
2022-08-28T03:21:59.754Z,67.41
2022-08-28T03:24:28.042Z,67.68
2022-08-28T03:26:56.286Z,67.77
2022-08-28T03:29:24.573Z,67.53
2022-08-28T03:31:52.907Z,67.41
2022-08-28T03:34:21.141Z,67.75
2022-08-28T03:36:50.870Z,67.71
2022-08-28T03:39:19.293Z,67.70
2022-08-28T03:41:47.575Z,67.78
2022-08-28T03:44:16.690Z,67.97
2022-08-28T03:46:44.887Z,67.95
2022-08-28T03:49:13.513Z,67.97
2022-08-28T03:51:43.151Z,68.01
2022-08-28T03:54:12.784Z,68.31
2022-08-28T03:56:43.483Z,68.52
2022-08-28T03:59:11.617Z,68.42
2022-08-28T04:01:40.493Z,68.35
2022-08-28T04:04:09.045Z,68.27
2022-08-28T04:06:38.559Z,68.13
2022-08-28T04:09:07.261Z,68.07
2022-08-28T04:11:42.512Z,68.00
2022-08-28T04:14:11.441Z,68.11
2022-08-28T04:16:39.774Z,68.05
2022-08-28T04:19:08.157Z,68.24
2022-08-28T04:21:36.432Z,67.97
2022-08-28T04:24:09.374Z,68.02
2022-08-28T04:26:39.611Z,67.94
2022-08-28T04:29:08.939Z,67.90
2022-08-28T04:31:37.710Z,68.15
2022-08-28T04:34:10.464Z,68.23
2022-08-28T04:36:39.372Z,68.29
2022-08-28T04:39:10.217Z,68.33
2022-08-28T04:41:40.069Z,68.43
2022-08-28T04:44:09.566Z,68.56
2022-08-28T04:46:38.556Z,68.26
2022-08-28T04:49:06.923Z,68.43
2022-08-28T04:51:37.837Z,68.67
2022-08-28T04:54:10.766Z,68.43
2022-08-28T04:56:41.647Z,68.46
2022-08-28T04:59:10.279Z,68.27
2022-08-28T05:01:39.107Z,68.19
2022-08-28T05:04:07.960Z,67.86
2022-08-28T05:06:36.211Z,67.59
2022-08-28T05:09:05.742Z,67.46
2022-08-28T05:11:35.208Z,67.59
2022-08-28T05:14:07.230Z,67.50
2022-08-28T05:16:42.879Z,67.44
2022-08-28T05:19:12.364Z,67.62
2022-08-28T05:21:40.610Z,67.56
2022-08-28T05:24:10.010Z,67.49
2022-08-28T05:26:40.067Z,67.28
2022-08-28T05:29:11.066Z,67.17
2022-08-28T05:31:41.755Z,67.36
2022-08-28T05:34:10.667Z,67.60
2022-08-28T05:36:40.069Z,67.55
2022-08-28T05:39:12.183Z,67.18
2022-08-28T05:41:43.414Z,67.18
2022-08-28T05:44:15.895Z,67.08
2022-08-28T05:46:48.461Z,66.82
2022-08-28T05:49:18.207Z,66.82
2022-08-28T05:51:47.286Z,66.66
2022-08-28T05:54:16.746Z,66.76
2022-08-28T05:56:46.892Z,66.52
2022-08-28T05:59:17.445Z,66.32
2022-08-28T06:01:48.591Z,66.00
2022-08-28T06:04:19.768Z,65.74
2022-08-28T06:06:49.433Z,65.80
2022-08-28T06:09:25.341Z,65.43
2022-08-28T06:11:58.783Z,65.42
2022-08-28T06:14:29.729Z,64.47
2022-08-28T06:16:59.638Z,63.50
2022-08-28T06:19:30.881Z,62.42
2022-08-28T06:22:07.007Z,61.48
2022-08-28T06:24:36.480Z,61.04
2022-08-28T06:27:04.907Z,60.46
2022-08-28T06:29:34.579Z,59.91
2022-08-28T06:32:05.395Z,59.28
2022-08-28T06:34:34.123Z,58.35
2022-08-28T06:37:02.370Z,58.93
2022-08-28T06:39:30.830Z,58.53
2022-08-28T06:41:59.046Z,57.91
2022-08-28T06:44:27.904Z,58.07
2022-08-28T06:46:57.771Z,56.93
2022-08-28T06:49:26.058Z,57.05
2022-08-28T06:51:55.932Z,57.09
2022-08-28T06:54:24.241Z,57.57
2022-08-28T06:56:53.360Z,56.36
2022-08-28T06:59:21.710Z,56.57
2022-08-28T07:01:53.610Z,56.55
2022-08-28T07:04:23.436Z,55.64
2022-08-28T07:06:54.643Z,55.58
2022-08-28T07:09:24.049Z,55.36
2022-08-28T07:11:52.505Z,54.97
2022-08-28T07:14:20.851Z,54.85
2022-08-28T07:16:49.126Z,54.06
2022-08-28T07:19:17.719Z,53.91
2022-08-28T07:21:48.154Z,53.63
2022-08-28T07:24:18.051Z,53.88
2022-08-28T07:26:47.873Z,54.30
2022-08-28T07:29:16.547Z,54.05
2022-08-28T07:31:48.256Z,54.76
2022-08-28T07:34:19.304Z,54.78
2022-08-28T07:36:51.867Z,55.40
2022-08-28T07:39:20.593Z,55.38
2022-08-28T07:41:51.894Z,54.67
2022-08-28T07:44:38.087Z,54.32
2022-08-28T07:47:08.748Z,53.77
2022-08-28T07:49:37.429Z,53.10
2022-08-28T07:52:08.307Z,53.28
2022-08-28T07:54:37.661Z,53.35
2022-08-28T07:57:07.607Z,53.40
2022-08-28T07:59:36.968Z,53.52
2022-08-28T08:02:06.552Z,54.09
2022-08-28T08:04:35.240Z,53.27
2022-08-28T08:07:06.092Z,52.96
2022-08-28T08:09:38.651Z,52.67
2022-08-28T08:12:07.969Z,52.32
2022-08-28T08:14:39.267Z,50.92
2022-08-28T08:17:08.167Z,51.63
2022-08-28T08:19:37.572Z,50.99
2022-08-28T08:22:07.299Z,50.01
2022-08-28T08:24:35.864Z,49.95
2022-08-28T08:27:06.664Z,49.89
2022-08-28T08:29:37.799Z,49.39
2022-08-28T08:32:09.094Z,48.97
2022-08-28T08:34:43.867Z,48.34
2022-08-28T08:37:14.231Z,47.57
2022-08-28T08:39:44.236Z,47.66
2022-08-28T08:42:24.545Z,47.77
2022-08-28T08:44:55.789Z,47.77
2022-08-28T08:47:32.203Z,48.03
2022-08-28T08:50:03.751Z,47.72
2022-08-28T08:52:39.911Z,48.36
2022-08-28T08:55:28.127Z,47.64
2022-08-28T08:58:06.659Z,47.82
2022-08-28T09:00:52.590Z,48.27
2022-08-28T09:03:25.593Z,47.08
2022-08-28T09:05:58.133Z,46.79
2022-08-28T09:08:38.075Z,46.73
2022-08-28T09:11:24.538Z,48.10
2022-08-28T09:14:00.334Z,48.87
2022-08-28T09:16:33.830Z,47.65
2022-08-28T09:19:02.935Z,48.12
2022-08-28T09:21:35.842Z,48.05
2022-08-28T09:24:11.002Z,49.29
2022-08-28T09:26:41.397Z,49.37
2022-08-28T09:29:18.562Z,49.76
2022-08-28T09:31:46.835Z,50.31
2022-08-28T09:34:23.941Z,49.29
2022-08-28T09:36:53.739Z,50.06
2022-08-28T09:39:26.619Z,50.07
2022-08-28T09:42:34.150Z,48.60
2022-08-28T09:45:09.441Z,48.01
2022-08-28T09:47:48.649Z,48.58
2022-08-28T09:50:27.430Z,47.40
2022-08-28T09:52:58.962Z,47.25
2022-08-28T09:55:37.669Z,47.50
2022-08-28T09:58:07.230Z,48.31
2022-08-28T10:00:39.159Z,47.72
2022-08-28T10:03:15.932Z,48.35
2022-08-28T10:06:04.129Z,49.12
2022-08-28T10:09:03.233Z,48.54
2022-08-28T10:11:52.026Z,48.83
2022-08-28T10:14:42.938Z,48.78
2022-08-28T10:17:26.792Z,49.48
2022-08-28T10:20:03.086Z,48.14
2022-08-28T10:22:42.251Z,46.87
2022-08-28T10:25:26.748Z,47.05
2022-08-28T10:28:15.322Z,47.79
2022-08-28T10:30:57.117Z,46.54
2022-08-28T10:33:50.401Z,45.40
2022-08-28T10:36:33.911Z,46.51
2022-08-28T10:39:24.604Z,45.66
2022-08-28T10:41:57.686Z,45.25
2022-08-28T10:44:35.665Z,46.04
2022-08-28T10:47:05.636Z,46.27
2022-08-28T10:49:39.239Z,45.82
2022-08-28T10:52:12.602Z,45.68
2022-08-28T10:54:47.849Z,45.28
2022-08-28T10:57:31.068Z,46.08
2022-08-28T11:00:06.591Z,46.08
2022-08-28T11:02:35.660Z,46.28
2022-08-28T11:05:05.219Z,46.51
2022-08-28T11:07:39.107Z,46.75
2022-08-28T11:10:22.935Z,46.43
2022-08-28T11:12:52.972Z,46.82
2022-08-28T11:15:47.492Z,47.68
2022-08-28T11:18:56.858Z,47.68
2022-08-28T11:21:28.909Z,47.08
2022-08-28T11:24:07.608Z,46.58
2022-08-28T11:26:47.125Z,45.26
2022-08-28T11:30:02.457Z,46.55
2022-08-28T11:33:30.755Z,46.69
2022-08-28T11:36:00.430Z,47.76
2022-08-28T11:39:06.170Z,47.56
2022-08-28T11:41:38.453Z,45.15
2022-08-28T11:44:30.321Z,45.41
2022-08-28T11:47:46.842Z,45.65
2022-08-28T11:50:34.807Z,45.22
2022-08-28T11:53:38.081Z,44.38
2022-08-28T11:56:37.809Z,44.90
2022-08-28T11:59:38.437Z,45.29
2022-08-28T12:02:49.615Z,45.73
2022-08-28T12:05:40.607Z,46.37
2022-08-28T12:08:11.912Z,45.97
2022-08-28T12:10:59.722Z,45.96
2022-08-28T12:13:49.747Z,45.36
2022-08-28T12:16:18.442Z,44.48
2022-08-28T12:19:09.254Z,45.08
2022-08-28T12:21:42.684Z,45.23
2022-08-28T12:24:22.399Z,46.15
2022-08-28T12:26:57.216Z,45.66
2022-08-28T12:29:32.054Z,45.58
2022-08-28T12:32:30.227Z,45.55
2022-08-28T12:35:20.947Z,45.79
2022-08-28T12:38:02.596Z,46.75
2022-08-28T12:40:50.229Z,45.99
2022-08-28T12:43:34.514Z,45.07
2022-08-28T12:46:06.974Z,45.53
2022-08-28T12:48:52.420Z,46.58
2022-08-28T12:51:25.661Z,47.60
2022-08-28T12:53:57.217Z,46.90
2022-08-28T12:56:29.988Z,47.17
2022-08-28T12:59:34.329Z,47.24
2022-08-28T13:02:04.715Z,47.34
2022-08-28T13:04:36.233Z,47.23
2022-08-28T13:07:11.886Z,47.44
2022-08-28T13:09:48.514Z,47.43
2022-08-28T13:12:29.031Z,47.13
2022-08-28T13:15:13.690Z,47.16
2022-08-28T13:17:54.874Z,46.72
2022-08-28T13:20:29.916Z,46.81
2022-08-28T13:22:59.157Z,46.10
2022-08-28T13:25:30.525Z,44.87
2022-08-28T13:28:02.949Z,44.84
2022-08-28T13:30:35.028Z,45.53
2022-08-28T13:33:17.348Z,45.67
2022-08-28T13:35:46.840Z,45.47
2022-08-28T13:38:18.354Z,45.85
2022-08-28T13:40:58.529Z,45.72
2022-08-28T13:43:31.295Z,45.67
2022-08-28T13:46:01.011Z,45.97
2022-08-28T13:48:30.064Z,45.62
2022-08-28T13:51:04.848Z,45.04
2022-08-28T13:53:33.663Z,45.20
2022-08-28T13:56:02.947Z,44.20
2022-08-28T13:58:31.264Z,45.53
2022-08-28T14:01:01.283Z,47.01
2022-08-28T14:03:38.577Z,47.62
2022-08-28T14:06:11.564Z,47.90
2022-08-28T14:08:41.353Z,48.29
2022-08-28T14:11:12.647Z,47.38
2022-08-28T14:13:47.151Z,47.41
2022-08-28T14:16:26.138Z,47.59
2022-08-28T14:18:54.749Z,47.52
2022-08-28T14:21:24.420Z,47.37
2022-08-28T14:23:52.827Z,46.81
2022-08-28T14:26:21.291Z,46.40
2022-08-28T14:28:49.628Z,46.21
2022-08-28T14:31:18.170Z,46.69
2022-08-28T14:33:48.222Z,46.71
2022-08-28T14:36:17.938Z,46.70
2022-08-28T14:38:46.271Z,46.68
2022-08-28T14:41:15.211Z,46.43
2022-08-28T14:43:43.509Z,46.88
2022-08-28T14:46:16.896Z,46.47
2022-08-28T14:48:45.319Z,47.04
2022-08-28T14:51:15.251Z,46.80
2022-08-28T14:53:44.411Z,47.00
2022-08-28T14:56:13.028Z,46.43
2022-08-28T14:58:41.586Z,46.58
2022-08-28T15:01:09.978Z,46.81
2022-08-28T15:03:38.343Z,47.39
2022-08-28T15:06:09.126Z,47.46
2022-08-28T15:08:39.785Z,47.50
2022-08-28T15:11:09.326Z,47.08
2022-08-28T15:13:37.878Z,46.90
2022-08-28T15:16:15.676Z,46.82
2022-08-28T15:18:46.429Z,46.87
2022-08-28T15:21:21.164Z,46.84
2022-08-28T15:23:52.851Z,44.94
2022-08-28T15:26:23.740Z,44.94
2022-08-28T15:28:55.677Z,45.43
2022-08-28T15:31:24.995Z,45.20
2022-08-28T15:33:53.556Z,45.67
2022-08-28T15:36:22.138Z,46.64
2022-08-28T15:39:09.365Z,47.52
2022-08-28T15:41:38.473Z,48.21
2022-08-28T15:44:06.859Z,48.34
2022-08-28T15:46:36.403Z,48.23
2022-08-28T15:49:07.922Z,48.66
2022-08-28T15:51:37.757Z,48.89
2022-08-28T15:54:07.560Z,49.27
2022-08-28T15:56:35.817Z,48.98
2022-08-28T15:59:04.162Z,49.16
2022-08-28T16:01:32.482Z,49.37
2022-08-28T16:04:00.933Z,48.90
2022-08-28T16:06:29.879Z,49.18
2022-08-28T16:08:58.596Z,49.46
2022-08-28T16:11:28.688Z,49.67
2022-08-28T16:14:04.560Z,49.69
2022-08-28T16:16:33.679Z,49.44
2022-08-28T16:19:02.123Z,49.64
2022-08-28T16:21:30.489Z,50.33
2022-08-28T16:23:59.116Z,49.99
2022-08-28T16:26:29.364Z,50.10
2022-08-28T16:28:57.832Z,50.59
2022-08-28T16:31:27.136Z,50.55
2022-08-28T16:33:55.506Z,51.02
2022-08-28T16:36:25.195Z,50.95
2022-08-28T16:39:00.396Z,50.70
2022-08-28T16:41:33.551Z,50.39
2022-08-28T16:44:01.887Z,50.61
2022-08-28T16:46:30.566Z,51.05
2022-08-28T16:48:59.645Z,50.96
2022-08-28T16:51:29.430Z,50.96
2022-08-28T16:53:58.634Z,50.81
2022-08-28T16:56:26.908Z,50.54
2022-08-28T16:58:57.021Z,50.25
2022-08-28T17:01:25.766Z,50.63
2022-08-28T17:03:55.378Z,50.70
2022-08-28T17:06:27.268Z,50.38
2022-08-28T17:08:57.297Z,50.34
2022-08-28T17:11:26.796Z,50.71
2022-08-28T17:13:57.306Z,50.43
2022-08-28T17:16:26.318Z,50.27
2022-08-28T17:18:54.714Z,50.32
2022-08-28T17:21:41.408Z,50.50
2022-08-28T17:24:12.437Z,50.26
2022-08-28T17:26:41.224Z,50.92
2022-08-28T17:29:11.564Z,51.05
2022-08-28T17:31:40.039Z,51.42
2022-08-28T17:34:08.621Z,51.81
2022-08-28T17:36:38.655Z,51.84
2022-08-28T17:39:11.537Z,51.74
2022-08-28T17:41:41.609Z,52.29
2022-08-28T17:44:11.805Z,52.50
2022-08-28T17:46:40.160Z,53.16
2022-08-28T17:49:09.229Z,53.32
2022-08-28T17:51:42.331Z,53.84
2022-08-28T17:54:13.502Z,53.38
2022-08-28T17:56:42.025Z,53.30
2022-08-28T17:59:12.489Z,52.94
2022-08-28T18:01:42.646Z,53.37
2022-08-28T18:04:11.218Z,53.87
2022-08-28T18:06:40.349Z,54.22
2022-08-28T18:09:10.272Z,54.11
2022-08-28T18:11:39.109Z,54.26
2022-08-28T18:14:10.854Z,54.44
2022-08-28T18:16:40.057Z,54.73
2022-08-28T18:19:10.656Z,54.82
2022-08-28T18:21:39.325Z,54.95
2022-08-28T18:24:08.847Z,55.27
2022-08-28T18:26:37.432Z,55.27
2022-08-28T18:29:06.336Z,55.47
2022-08-28T18:31:36.112Z,55.43
2022-08-28T18:34:04.606Z,55.45
2022-08-28T18:36:32.866Z,55.59
2022-08-28T18:39:04.217Z,55.85
2022-08-28T18:41:35.745Z,55.64
2022-08-28T18:44:14.138Z,55.93
2022-08-28T18:46:44.939Z,55.93
2022-08-28T18:49:14.130Z,56.40
2022-08-28T18:51:44.218Z,56.65
2022-08-28T18:54:14.414Z,56.77
2022-08-28T18:56:45.449Z,56.83
2022-08-28T18:59:13.824Z,56.80
2022-08-28T19:01:43.872Z,56.89
2022-08-28T19:04:12.414Z,57.21
2022-08-28T19:06:42.553Z,57.50
2022-08-28T19:09:19.360Z,57.47
2022-08-28T19:11:49.271Z,57.61
2022-08-28T19:14:17.729Z,57.83
2022-08-28T19:16:47.650Z,57.89
2022-08-28T19:19:16.333Z,57.99
2022-08-28T19:21:44.572Z,58.22
2022-08-28T19:24:16.352Z,58.07
2022-08-28T19:26:44.867Z,58.10
2022-08-28T19:29:13.773Z,58.34
2022-08-28T19:31:42.577Z,57.95
2022-08-28T19:34:13.016Z,58.10
2022-08-28T19:36:41.730Z,58.25
2022-08-28T19:39:09.983Z,58.14
2022-08-28T19:41:38.839Z,57.63
2022-08-28T19:44:08.278Z,58.35
2022-08-28T19:46:38.801Z,58.28
2022-08-28T19:49:07.828Z,58.28
2022-08-28T19:51:39.960Z,58.46
2022-08-28T19:54:11.111Z,58.20
2022-08-28T19:56:40.011Z,58.44
2022-08-28T19:59:10.503Z,58.08
2022-08-28T20:01:43.655Z,58.59
2022-08-28T20:04:13.435Z,58.90
2022-08-28T20:06:43.498Z,58.82
2022-08-28T20:09:13.048Z,58.80
2022-08-28T20:11:45.032Z,58.87
2022-08-28T20:14:14.451Z,58.60
2022-08-28T20:16:45.294Z,58.90
2022-08-28T20:19:14.583Z,59.05
2022-08-28T20:21:47.122Z,59.07
2022-08-28T20:24:20.291Z,59.31
2022-08-28T20:26:49.330Z,59.20
2022-08-28T20:29:18.695Z,59.62
2022-08-28T20:31:49.143Z,59.49
2022-08-28T20:34:19.958Z,59.28
2022-08-28T20:36:50.679Z,59.41
2022-08-28T20:39:19.674Z,59.79
2022-08-28T20:41:49.225Z,59.72
2022-08-28T20:44:21.009Z,59.85
2022-08-28T20:46:51.528Z,59.99
2022-08-28T20:49:22.488Z,59.96
2022-08-28T20:51:56.717Z,60.45
2022-08-28T20:54:30.033Z,60.67
2022-08-28T20:57:02.973Z,60.62
2022-08-28T20:59:34.562Z,60.82
2022-08-28T21:02:10.946Z,60.92
2022-08-28T21:04:40.041Z,60.94
2022-08-28T21:07:12.932Z,60.95
2022-08-28T21:10:05.739Z,61.20
2022-08-28T21:12:29.841Z,61.27
2022-08-28T21:14:59.673Z,61.53
2022-08-28T21:17:30.217Z,61.36
2022-08-28T21:20:02.964Z,61.65
2022-08-28T21:22:35.254Z,61.83
2022-08-28T21:25:05.718Z,61.94
2022-08-28T21:27:34.110Z,61.92
2022-08-28T21:30:02.809Z,62.11
2022-08-28T21:32:33.914Z,62.26
2022-08-28T21:35:02.519Z,62.19
2022-08-28T21:37:31.229Z,62.35
2022-08-28T21:40:01.787Z,62.72
2022-08-28T21:42:30.464Z,62.74
2022-08-28T21:44:58.937Z,62.96
2022-08-28T21:47:27.582Z,63.04
2022-08-28T21:49:58.163Z,62.97
2022-08-28T21:52:28.385Z,63.13
2022-08-28T21:55:00.507Z,63.15
2022-08-28T21:57:29.968Z,63.42
2022-08-28T21:59:58.667Z,63.71
2022-08-28T22:02:27.554Z,63.53
2022-08-28T22:04:55.982Z,63.44
2022-08-28T22:07:25.201Z,63.55
2022-08-28T22:09:53.652Z,63.84
2022-08-28T22:12:23.388Z,64.00
2022-08-28T22:14:52.048Z,63.64
2022-08-28T22:17:20.681Z,63.76
2022-08-28T22:19:48.942Z,63.75
2022-08-28T22:22:35.642Z,63.71
2022-08-28T22:25:05.838Z,63.67
2022-08-28T22:27:35.599Z,63.74
2022-08-28T22:30:04.882Z,63.64
2022-08-28T22:32:33.374Z,63.73
2022-08-28T22:35:01.751Z,63.67
2022-08-28T22:37:30.115Z,63.60
2022-08-28T22:39:59.217Z,63.78
2022-08-28T22:42:27.508Z,63.44
2022-08-28T22:44:57.233Z,63.25
2022-08-28T22:47:25.651Z,62.96
2022-08-28T22:49:58.360Z,62.86
2022-08-28T22:52:27.041Z,63.09
2022-08-28T22:54:55.411Z,62.77
2022-08-28T22:57:23.951Z,62.66
2022-08-28T22:59:52.308Z,62.32
2022-08-28T23:02:27.133Z,62.16
2022-08-28T23:04:55.967Z,62.08
2022-08-28T23:07:24.281Z,62.45
2022-08-28T23:09:52.601Z,62.26
2022-08-28T23:12:20.964Z,62.18
2022-08-28T23:14:49.437Z,61.98
2022-08-28T23:17:18.696Z,62.34
2022-08-28T23:19:49.111Z,62.65
2022-08-28T23:22:19.187Z,62.46
2022-08-28T23:24:48.796Z,62.55
2022-08-28T23:27:36.090Z,62.55
2022-08-28T23:30:07.757Z,62.50
2022-08-28T23:32:36.097Z,62.35
2022-08-28T23:35:08.172Z,62.45
2022-08-28T23:37:38.665Z,62.47
2022-08-28T23:40:11.610Z,62.50
2022-08-28T23:42:40.687Z,62.86
2022-08-28T23:45:10.740Z,62.17
2022-08-28T23:47:40.679Z,62.18
2022-08-28T23:50:15.838Z,62.13
2022-08-28T23:52:44.672Z,61.83
2022-08-28T23:55:14.685Z,62.09
2022-08-28T23:57:44.051Z,62.13
